createdAt,value
2022-10-06T00:00:40.111Z,1.40
2022-10-06T00:01:40.080Z,1.10
2022-10-06T00:02:40.063Z,1.00
2022-10-06T00:03:39.985Z,1.20
2022-10-06T00:04:39.944Z,1.20
2022-10-06T00:05:39.902Z,1.00
2022-10-06T00:06:39.875Z,1.00
2022-10-06T00:07:39.822Z,1.00
2022-10-06T00:08:39.790Z,1.20
2022-10-06T00:09:39.749Z,1.40
2022-10-06T00:10:39.701Z,1.10
2022-10-06T00:11:39.664Z,1.20
2022-10-06T00:12:39.638Z,1.30
2022-10-06T00:13:39.588Z,1.30
2022-10-06T00:14:39.547Z,1.40
2022-10-06T00:15:39.549Z,1.20
2022-10-06T00:16:39.465Z,1.10
2022-10-06T00:17:39.426Z,1.30
2022-10-06T00:18:39.400Z,1.20
2022-10-06T00:19:39.347Z,1.10
2022-10-06T00:20:39.309Z,1.40
2022-10-06T00:21:39.271Z,1.30
2022-10-06T00:22:39.226Z,1.20
2022-10-06T00:23:39.188Z,1.30
2022-10-06T00:24:39.159Z,1.30
2022-10-06T00:25:39.111Z,1.50
2022-10-06T00:26:39.068Z,1.40
2022-10-06T00:27:39.028Z,1.40
2022-10-06T00:28:39.025Z,1.20
2022-10-06T00:29:38.952Z,1.30
2022-10-06T00:30:38.919Z,1.50
2022-10-06T00:31:38.869Z,1.30
2022-10-06T00:32:38.834Z,1.40
2022-10-06T00:33:38.793Z,1.40
2022-10-06T00:34:38.753Z,1.40
2022-10-06T00:35:38.714Z,1.40
2022-10-06T00:36:38.691Z,1.30
2022-10-06T00:37:38.635Z,1.50
2022-10-06T00:38:38.594Z,1.40
2022-10-06T00:39:38.556Z,1.30
2022-10-06T00:40:38.515Z,1.30
2022-10-06T00:41:38.482Z,1.30
2022-10-06T00:42:38.447Z,1.40
2022-10-06T00:43:38.399Z,1.40
2022-10-06T00:44:38.359Z,1.20
2022-10-06T00:45:38.322Z,1.50
2022-10-06T00:46:38.365Z,1.50
2022-10-06T00:47:38.252Z,1.40
2022-10-06T00:48:38.206Z,1.50
2022-10-06T00:49:38.157Z,1.60
2022-10-06T00:50:38.122Z,1.50
2022-10-06T00:51:38.196Z,1.30
2022-10-06T00:52:38.039Z,1.20
2022-10-06T00:53:38.010Z,1.30
2022-10-06T00:54:37.960Z,1.30
2022-10-06T00:55:37.918Z,1.40
2022-10-06T00:56:37.879Z,1.40
2022-10-06T00:57:37.842Z,1.70
2022-10-06T00:58:37.799Z,1.40
2022-10-06T00:59:37.777Z,1.30
2022-10-06T01:00:37.719Z,1.50
2022-10-06T01:01:37.749Z,1.60
2022-10-06T01:02:37.736Z,1.50
2022-10-06T01:03:37.601Z,1.60
2022-10-06T01:04:37.560Z,1.40
2022-10-06T01:05:37.534Z,1.30
2022-10-06T01:06:37.481Z,1.40
2022-10-06T01:07:37.442Z,1.30
2022-10-06T01:08:37.402Z,1.20
2022-10-06T01:09:37.364Z,1.40
2022-10-06T01:10:37.322Z,1.70
2022-10-06T01:11:37.296Z,1.60
2022-10-06T01:12:37.241Z,1.30
2022-10-06T01:13:37.205Z,1.40
2022-10-06T01:14:37.163Z,1.50
2022-10-06T01:15:37.161Z,1.60
2022-10-06T01:16:37.083Z,1.50
2022-10-06T01:17:37.063Z,1.60
2022-10-06T01:18:37.004Z,1.40
2022-10-06T01:19:36.963Z,1.50
2022-10-06T01:20:36.929Z,1.50
2022-10-06T01:21:36.892Z,1.60
2022-10-06T01:22:36.843Z,1.60
2022-10-06T01:23:36.821Z,1.70
2022-10-06T01:24:36.765Z,1.40
2022-10-06T01:25:36.725Z,1.40
2022-10-06T01:26:36.685Z,1.50
2022-10-06T01:27:36.647Z,1.60
2022-10-06T01:28:36.660Z,1.60
2022-10-06T01:29:36.577Z,1.60
2022-10-06T01:30:36.525Z,1.30
2022-10-06T01:31:36.507Z,1.40
2022-10-06T01:32:36.446Z,1.30
2022-10-06T01:33:36.410Z,1.60
2022-10-06T01:34:36.368Z,1.70
2022-10-06T01:35:36.336Z,1.50
2022-10-06T01:36:36.284Z,1.60
2022-10-06T01:37:36.246Z,1.70
2022-10-06T01:38:36.205Z,1.60
2022-10-06T01:39:36.166Z,1.70
2022-10-06T01:40:36.126Z,1.70
2022-10-06T01:41:36.098Z,1.50
2022-10-06T01:42:36.043Z,1.50
2022-10-06T01:43:36.004Z,1.80
2022-10-06T01:44:35.971Z,1.70
2022-10-06T01:45:35.938Z,2.00
2022-10-06T01:46:35.926Z,1.70
2022-10-06T01:47:35.859Z,1.80
2022-10-06T01:48:35.816Z,1.90
2022-10-06T01:49:35.764Z,1.70
2022-10-06T01:50:35.724Z,1.90
2022-10-06T01:51:35.689Z,1.70
2022-10-06T01:52:35.652Z,1.50
2022-10-06T01:53:35.616Z,1.70
2022-10-06T01:54:35.564Z,1.70
2022-10-06T01:55:35.523Z,1.80
2022-10-06T01:56:35.486Z,1.70
2022-10-06T01:57:35.444Z,2.00
2022-10-06T01:58:35.404Z,1.90
2022-10-06T01:59:35.370Z,2.10
2022-10-06T02:00:35.336Z,2.00
2022-10-06T02:01:35.346Z,2.20
2022-10-06T02:02:35.245Z,1.80
2022-10-06T02:03:35.204Z,1.90
2022-10-06T02:04:35.165Z,2.10
2022-10-06T02:05:35.129Z,2.00
2022-10-06T02:06:35.195Z,2.30
2022-10-06T02:07:35.043Z,2.00
2022-10-06T02:08:35.003Z,2.20
2022-10-06T02:09:35.030Z,2.30
2022-10-06T02:10:35.159Z,2.40
2022-10-06T02:11:34.883Z,2.30
2022-10-06T02:12:34.883Z,2.20
2022-10-06T02:13:34.807Z,2.30
2022-10-06T02:14:34.778Z,2.10
2022-10-06T02:15:34.787Z,2.20
2022-10-06T02:16:34.684Z,2.20
2022-10-06T02:17:34.644Z,2.20
2022-10-06T02:18:34.615Z,2.10
2022-10-06T02:19:34.563Z,2.30
2022-10-06T02:20:34.528Z,2.30
2022-10-06T02:21:34.480Z,2.40
2022-10-06T02:22:34.443Z,2.10
2022-10-06T02:23:34.402Z,2.30
2022-10-06T02:24:34.375Z,2.40
2022-10-06T02:25:34.320Z,2.10
2022-10-06T02:26:34.289Z,2.20
2022-10-06T02:27:34.239Z,2.00
2022-10-06T02:28:34.588Z,2.20
2022-10-06T02:29:34.159Z,2.20
2022-10-06T02:30:34.135Z,2.40
2022-10-06T02:31:34.107Z,2.90
2022-10-06T02:32:34.039Z,2.80
2022-10-06T02:33:33.997Z,2.80
2022-10-06T02:34:33.962Z,3.40
2022-10-06T02:35:33.919Z,3.10
2022-10-06T02:36:33.892Z,2.50
2022-10-06T02:37:33.840Z,2.70
2022-10-06T02:38:33.799Z,3.10
2022-10-06T02:39:33.757Z,2.90
2022-10-06T02:40:33.719Z,2.60
2022-10-06T02:41:33.680Z,2.70
2022-10-06T02:42:33.653Z,3.00
2022-10-06T02:43:33.600Z,2.90
2022-10-06T02:44:33.559Z,2.90
2022-10-06T02:45:33.597Z,2.80
2022-10-06T02:46:42.530Z,3.00
2022-10-06T02:47:33.437Z,2.80
2022-10-06T02:48:33.411Z,3.10
2022-10-06T02:49:33.357Z,2.90
2022-10-06T02:50:33.319Z,2.90
2022-10-06T02:51:33.277Z,3.10
2022-10-06T02:52:33.239Z,2.60
2022-10-06T02:53:33.197Z,2.90
2022-10-06T02:54:33.220Z,2.80
2022-10-06T02:55:33.116Z,3.00
2022-10-06T02:56:33.076Z,2.50
2022-10-06T02:57:33.039Z,2.80
2022-10-06T02:58:33.027Z,2.40
2022-10-06T02:59:32.955Z,2.50
2022-10-06T03:00:32.992Z,2.40
2022-10-06T03:01:32.912Z,2.50
2022-10-06T03:02:32.932Z,2.40
2022-10-06T03:03:32.797Z,2.50
2022-10-06T03:04:32.756Z,2.40
2022-10-06T03:05:32.715Z,2.30
2022-10-06T03:06:32.685Z,2.60
2022-10-06T03:07:32.633Z,2.40
2022-10-06T03:08:32.715Z,2.40
2022-10-06T03:09:32.581Z,2.50
2022-10-06T03:10:32.517Z,2.40
2022-10-06T03:11:32.492Z,2.50
2022-10-06T03:12:32.441Z,2.20
2022-10-06T03:13:32.396Z,2.60
2022-10-06T03:14:32.360Z,2.40
2022-10-06T03:15:32.315Z,2.80
2022-10-06T03:16:32.396Z,2.50
2022-10-06T03:17:32.248Z,2.30
2022-10-06T03:18:32.571Z,2.50
2022-10-06T03:19:32.154Z,2.20
2022-10-06T03:20:32.115Z,2.50
2022-10-06T03:21:32.081Z,2.60
2022-10-06T03:22:32.049Z,2.40
2022-10-06T03:23:31.995Z,2.60
2022-10-06T03:24:31.966Z,2.40
2022-10-06T03:25:31.914Z,2.50
2022-10-06T03:26:31.889Z,2.50
2022-10-06T03:27:31.842Z,2.30
2022-10-06T03:28:32.443Z,2.60
2022-10-06T03:29:31.754Z,2.60
2022-10-06T03:30:31.722Z,2.40
2022-10-06T03:31:31.714Z,2.40
2022-10-06T03:32:31.634Z,2.30
2022-10-06T03:33:31.599Z,2.50
2022-10-06T03:34:31.566Z,2.70
2022-10-06T03:35:31.517Z,2.50
2022-10-06T03:36:31.472Z,2.40
2022-10-06T03:37:31.432Z,2.60
2022-10-06T03:38:31.745Z,2.80
2022-10-06T03:39:31.357Z,2.60
2022-10-06T03:40:31.326Z,2.30
2022-10-06T03:41:31.273Z,2.60
2022-10-06T03:42:31.232Z,2.70
2022-10-06T03:43:31.189Z,2.60
2022-10-06T03:44:31.151Z,2.90
2022-10-06T03:45:31.109Z,2.80
2022-10-06T03:46:31.111Z,2.70
2022-10-06T03:47:31.029Z,2.60
2022-10-06T03:48:31.528Z,2.60
2022-10-06T03:49:30.960Z,2.40
2022-10-06T03:50:30.914Z,2.70
2022-10-06T03:51:30.872Z,2.50
2022-10-06T03:52:30.831Z,2.70
2022-10-06T03:53:30.789Z,2.40
2022-10-06T03:54:30.762Z,2.80
2022-10-06T03:55:30.709Z,2.80
2022-10-06T03:56:30.669Z,2.70
2022-10-06T03:57:30.628Z,2.50
2022-10-06T03:58:31.005Z,2.30
2022-10-06T03:59:30.564Z,2.50
2022-10-06T04:00:30.518Z,2.50
2022-10-06T04:01:30.504Z,2.40
2022-10-06T04:02:30.510Z,2.50
2022-10-06T04:03:30.396Z,2.60
2022-10-06T04:04:30.348Z,2.50
2022-10-06T04:05:30.304Z,2.50
2022-10-06T04:06:30.274Z,2.60
2022-10-06T04:07:30.224Z,2.70
2022-10-06T04:08:30.610Z,2.60
2022-10-06T04:09:30.142Z,2.70
2022-10-06T04:10:30.106Z,2.60
2022-10-06T04:11:30.061Z,2.50
2022-10-06T04:12:30.036Z,2.40
2022-10-06T04:13:29.982Z,2.90
2022-10-06T04:14:29.956Z,3.20
2022-10-06T04:15:29.904Z,2.70
2022-10-06T04:16:29.903Z,2.40
2022-10-06T04:17:29.830Z,2.90
2022-10-06T04:18:30.039Z,2.70
2022-10-06T04:19:29.747Z,2.90
2022-10-06T04:20:29.700Z,2.80
2022-10-06T04:21:29.662Z,2.70
2022-10-06T04:22:29.620Z,2.40
2022-10-06T04:23:29.591Z,2.80
2022-10-06T04:24:29.538Z,2.60
2022-10-06T04:25:29.499Z,3.00
2022-10-06T04:26:29.463Z,2.40
2022-10-06T04:27:29.418Z,2.80
2022-10-06T04:28:29.647Z,2.90
2022-10-06T04:29:29.336Z,2.60
2022-10-06T04:30:29.303Z,2.60
2022-10-06T04:31:29.333Z,2.50
2022-10-06T04:32:29.217Z,2.80
2022-10-06T04:33:29.183Z,3.00
2022-10-06T04:34:29.145Z,3.20
2022-10-06T04:35:29.095Z,2.70
2022-10-06T04:36:29.056Z,2.30
2022-10-06T04:37:29.019Z,2.80
2022-10-06T04:38:29.309Z,2.60
2022-10-06T04:39:28.946Z,2.60
2022-10-06T04:40:28.891Z,6.50
2022-10-06T04:41:28.850Z,5.20
2022-10-06T04:42:33.946Z,2.70
2022-10-06T04:43:28.769Z,2.90
2022-10-06T04:44:28.729Z,2.80
2022-10-06T04:45:28.746Z,2.60
2022-10-06T04:46:44.968Z,2.90
2022-10-06T04:47:28.607Z,2.50
2022-10-06T04:48:28.878Z,2.60
2022-10-06T04:49:28.529Z,3.00
2022-10-06T04:50:28.487Z,2.40
2022-10-06T04:51:28.455Z,2.60
2022-10-06T04:52:28.505Z,2.60
2022-10-06T04:53:28.365Z,2.50
2022-10-06T04:54:33.389Z,2.70
2022-10-06T04:55:28.282Z,2.60
2022-10-06T04:56:28.245Z,3.00
2022-10-06T04:57:28.216Z,3.30
2022-10-06T04:58:28.535Z,2.80
2022-10-06T04:59:28.121Z,2.80
2022-10-06T05:00:28.082Z,2.90
2022-10-06T05:01:28.086Z,2.60
2022-10-06T05:02:28.028Z,2.90
2022-10-06T05:03:27.970Z,3.00
2022-10-06T05:04:27.934Z,3.00
2022-10-06T05:05:27.878Z,2.90
2022-10-06T05:06:27.839Z,2.90
2022-10-06T05:07:27.795Z,3.00
2022-10-06T05:08:28.265Z,3.20
2022-10-06T05:09:27.734Z,2.90
2022-10-06T05:10:27.674Z,3.00
2022-10-06T05:11:27.635Z,2.80
2022-10-06T05:12:27.595Z,3.10
2022-10-06T05:13:27.561Z,3.30
2022-10-06T05:14:27.512Z,3.00
2022-10-06T05:15:27.491Z,2.70
2022-10-06T05:16:27.488Z,2.90
2022-10-06T05:17:27.393Z,3.00
2022-10-06T05:18:27.759Z,2.70
2022-10-06T05:19:27.321Z,3.00
2022-10-06T05:20:27.269Z,2.60
2022-10-06T05:21:27.230Z,3.00
2022-10-06T05:22:27.187Z,2.90
2022-10-06T05:23:27.168Z,3.10
2022-10-06T05:24:27.113Z,2.80
2022-10-06T05:25:27.112Z,3.20
2022-10-06T05:26:27.030Z,3.10
2022-10-06T05:27:26.983Z,3.20
2022-10-06T05:28:27.534Z,3.00
2022-10-06T05:29:26.907Z,3.10
2022-10-06T05:30:26.862Z,3.20
2022-10-06T05:31:26.901Z,3.00
2022-10-06T05:32:26.783Z,2.80
2022-10-06T05:33:26.739Z,2.80
2022-10-06T05:34:26.705Z,3.10
2022-10-06T05:35:26.658Z,2.60
2022-10-06T05:36:26.618Z,2.90
2022-10-06T05:37:26.591Z,3.10
2022-10-06T05:38:27.072Z,2.90
2022-10-06T05:39:26.500Z,3.20
2022-10-06T05:40:26.456Z,3.00
2022-10-06T05:41:26.416Z,3.00
2022-10-06T05:42:29.691Z,3.20
2022-10-06T05:43:26.347Z,3.20
2022-10-06T05:44:26.290Z,3.00
2022-10-06T05:45:26.252Z,3.10
2022-10-06T05:46:26.210Z,3.20
2022-10-06T05:47:26.170Z,2.90
2022-10-06T05:48:26.661Z,2.80
2022-10-06T05:49:26.100Z,3.00
2022-10-06T05:50:26.045Z,3.30
2022-10-06T05:51:30.294Z,2.90
2022-10-06T05:52:25.964Z,3.20
2022-10-06T05:53:25.926Z,3.10
2022-10-06T05:54:25.884Z,3.10
2022-10-06T05:55:25.850Z,2.80
2022-10-06T05:56:25.806Z,2.90
2022-10-06T05:57:25.758Z,3.10
2022-10-06T05:58:25.719Z,3.30
2022-10-06T05:59:25.681Z,3.50
2022-10-06T06:00:25.637Z,3.30
2022-10-06T06:01:25.763Z,3.10
2022-10-06T06:02:25.613Z,3.20
2022-10-06T06:03:25.517Z,2.80
2022-10-06T06:04:25.474Z,2.90
2022-10-06T06:05:25.437Z,3.10
2022-10-06T06:06:25.398Z,3.30
2022-10-06T06:07:25.387Z,3.20
2022-10-06T06:08:25.324Z,3.00
2022-10-06T06:09:25.271Z,3.40
2022-10-06T06:10:25.228Z,3.60
2022-10-06T06:11:25.190Z,3.70
2022-10-06T06:12:25.154Z,3.70
2022-10-06T06:13:25.120Z,3.70
2022-10-06T06:14:25.066Z,3.40
2022-10-06T06:15:25.024Z,3.30
2022-10-06T06:16:25.019Z,3.50
2022-10-06T06:17:24.963Z,3.30
2022-10-06T06:18:24.901Z,3.20
2022-10-06T06:19:28.944Z,3.20
2022-10-06T06:20:24.855Z,3.30
2022-10-06T06:21:24.779Z,3.30
2022-10-06T06:22:24.738Z,3.40
2022-10-06T06:23:24.706Z,3.50
2022-10-06T06:24:24.666Z,3.50
2022-10-06T06:25:24.617Z,3.40
2022-10-06T06:26:24.575Z,3.50
2022-10-06T06:27:24.536Z,3.20
2022-10-06T06:28:24.548Z,3.00
2022-10-06T06:29:24.466Z,3.30
2022-10-06T06:30:24.417Z,3.20
2022-10-06T06:31:24.399Z,3.00
2022-10-06T06:32:24.334Z,3.10
2022-10-06T06:33:24.300Z,3.00
2022-10-06T06:34:24.254Z,3.20
2022-10-06T06:35:24.227Z,3.20
2022-10-06T06:36:24.174Z,2.90
2022-10-06T06:37:24.140Z,2.90
2022-10-06T06:38:24.100Z,2.90
2022-10-06T06:39:24.059Z,2.70
2022-10-06T06:40:24.015Z,3.00
2022-10-06T06:41:23.992Z,2.90
2022-10-06T06:42:23.949Z,2.80
2022-10-06T06:43:23.904Z,3.10
2022-10-06T06:44:23.864Z,3.30
2022-10-06T06:45:23.823Z,3.30
2022-10-06T06:46:23.974Z,3.00
2022-10-06T06:47:25.931Z,2.90
2022-10-06T06:48:23.716Z,2.80
2022-10-06T06:49:23.675Z,3.10
2022-10-06T06:50:23.639Z,3.00
2022-10-06T06:51:23.592Z,3.10
2022-10-06T06:52:23.553Z,2.90
2022-10-06T06:53:23.534Z,2.80
2022-10-06T06:54:23.476Z,2.80
2022-10-06T06:55:23.444Z,3.00
2022-10-06T06:56:23.399Z,3.40
2022-10-06T06:57:23.364Z,3.20
2022-10-06T06:58:23.326Z,3.00
2022-10-06T06:59:23.301Z,3.20
2022-10-06T07:00:23.357Z,3.40
2022-10-06T07:01:23.269Z,3.20
2022-10-06T07:02:23.204Z,3.00
2022-10-06T07:03:44.930Z,3.90
2022-10-06T07:04:23.114Z,3.30
2022-10-06T07:05:23.080Z,3.00
2022-10-06T07:06:27.100Z,3.10
2022-10-06T07:07:22.993Z,3.60
2022-10-06T07:08:22.956Z,3.10
2022-10-06T07:09:22.923Z,3.00
2022-10-06T07:10:22.895Z,3.00
2022-10-06T07:11:22.848Z,2.80
2022-10-06T07:12:22.813Z,3.30
2022-10-06T07:13:25.609Z,3.20
2022-10-06T07:14:22.746Z,3.10
2022-10-06T07:15:22.706Z,3.30
2022-10-06T07:16:22.680Z,3.30
2022-10-06T07:17:22.635Z,3.30
2022-10-06T07:18:22.613Z,3.20
2022-10-06T07:19:24.828Z,3.30
2022-10-06T07:20:22.526Z,3.30
2022-10-06T07:21:22.494Z,3.10
2022-10-06T07:22:22.464Z,3.40
2022-10-06T07:23:22.417Z,3.20
2022-10-06T07:24:22.381Z,3.50
2022-10-06T07:25:25.756Z,3.20
2022-10-06T07:26:22.313Z,3.40
2022-10-06T07:27:22.277Z,3.10
2022-10-06T07:28:22.325Z,3.30
2022-10-06T07:29:22.212Z,3.10
2022-10-06T07:30:22.171Z,3.20
2022-10-06T07:31:22.216Z,3.70
2022-10-06T07:32:22.136Z,3.30
2022-10-06T07:33:22.078Z,3.70
2022-10-06T07:34:22.031Z,3.30
2022-10-06T07:35:21.999Z,3.60
2022-10-06T07:36:21.976Z,3.40
2022-10-06T07:37:21.929Z,3.30
2022-10-06T07:38:21.903Z,3.40
2022-10-06T07:39:21.860Z,3.30
2022-10-06T07:40:21.824Z,3.20
2022-10-06T07:41:21.789Z,3.60
2022-10-06T07:42:21.764Z,3.20
2022-10-06T07:43:21.729Z,2.90
2022-10-06T07:44:21.684Z,3.10
2022-10-06T07:45:21.652Z,3.30
2022-10-06T07:46:21.662Z,3.60
2022-10-06T07:47:21.584Z,3.50
2022-10-06T07:48:21.564Z,3.90
2022-10-06T07:49:21.515Z,3.80
2022-10-06T07:50:21.481Z,3.10
2022-10-06T07:51:21.455Z,3.50
2022-10-06T07:52:21.411Z,3.50
2022-10-06T07:53:21.379Z,3.20
2022-10-06T07:54:26.504Z,3.10
2022-10-06T07:55:21.312Z,3.40
2022-10-06T07:56:21.279Z,3.30
2022-10-06T07:57:21.244Z,3.60
2022-10-06T07:58:21.208Z,3.40
2022-10-06T07:59:21.175Z,4.00
2022-10-06T08:00:21.207Z,3.40
2022-10-06T08:01:21.149Z,3.60
2022-10-06T08:02:21.104Z,3.80
2022-10-06T08:03:21.139Z,3.90
2022-10-06T08:04:21.004Z,3.30
2022-10-06T08:05:20.973Z,3.40
2022-10-06T08:06:20.946Z,3.40
2022-10-06T08:07:20.906Z,3.70
2022-10-06T08:08:20.871Z,3.50
2022-10-06T08:09:20.838Z,2.90
2022-10-06T08:10:20.813Z,3.10
2022-10-06T08:11:20.771Z,3.20
2022-10-06T08:12:20.747Z,3.40
2022-10-06T08:13:20.704Z,3.10
2022-10-06T08:14:20.667Z,3.70
2022-10-06T08:15:20.643Z,3.40
2022-10-06T08:16:20.670Z,3.40
2022-10-06T08:17:20.570Z,3.30
2022-10-06T08:18:44.411Z,3.20
2022-10-06T08:19:20.505Z,3.50
2022-10-06T08:20:20.472Z,3.50
2022-10-06T08:21:20.437Z,3.30
2022-10-06T08:22:20.401Z,3.50
2022-10-06T08:23:20.369Z,3.50
2022-10-06T08:24:20.352Z,3.40
2022-10-06T08:25:20.303Z,2.90
2022-10-06T08:26:20.269Z,3.60
2022-10-06T08:27:20.246Z,3.20
2022-10-06T08:28:20.250Z,3.30
2022-10-06T08:29:20.183Z,3.60
2022-10-06T08:30:20.137Z,3.20
2022-10-06T08:31:20.179Z,3.60
2022-10-06T08:32:20.072Z,3.50
2022-10-06T08:33:21.409Z,3.50
2022-10-06T08:34:20.013Z,3.00
2022-10-06T08:35:19.982Z,3.10
2022-10-06T08:36:19.954Z,3.20
2022-10-06T08:37:20.572Z,3.80
2022-10-06T08:38:19.875Z,2.90
2022-10-06T08:39:19.843Z,3.10
2022-10-06T08:40:19.807Z,3.30
2022-10-06T08:41:19.787Z,3.20
2022-10-06T08:42:19.742Z,3.40
2022-10-06T08:43:19.711Z,3.40
2022-10-06T08:44:19.757Z,3.10
2022-10-06T08:45:19.647Z,3.40
2022-10-06T08:46:22.367Z,3.10
2022-10-06T08:47:28.642Z,3.30
2022-10-06T08:48:19.546Z,3.50
2022-10-06T08:49:19.578Z,3.40
2022-10-06T08:50:19.479Z,3.30
2022-10-06T08:51:19.488Z,3.30
2022-10-06T08:52:19.415Z,3.20
2022-10-06T08:53:19.395Z,3.50
2022-10-06T08:54:19.349Z,3.40
2022-10-06T08:55:19.316Z,3.90
2022-10-06T08:56:19.282Z,3.30
2022-10-06T08:57:19.295Z,3.10
2022-10-06T08:58:20.140Z,3.30
2022-10-06T08:59:20.085Z,3.40
2022-10-06T09:00:22.046Z,3.30
2022-10-06T09:01:19.144Z,3.30
2022-10-06T09:02:19.125Z,3.30
2022-10-06T09:03:19.053Z,3.60
2022-10-06T09:04:19.019Z,3.40
2022-10-06T09:05:18.999Z,3.50
2022-10-06T09:06:18.967Z,3.40
2022-10-06T09:07:18.923Z,3.00
2022-10-06T09:08:18.930Z,3.20
2022-10-06T09:09:18.856Z,3.20
2022-10-06T09:10:18.908Z,3.30
2022-10-06T09:11:18.802Z,3.30
2022-10-06T09:12:18.755Z,3.60
2022-10-06T09:13:21.927Z,3.50
2022-10-06T09:14:18.692Z,3.20
2022-10-06T09:15:18.660Z,3.60
2022-10-06T09:16:18.659Z,3.60
2022-10-06T09:17:18.613Z,3.50
2022-10-06T09:18:18.561Z,3.50
2022-10-06T09:19:18.529Z,3.30
2022-10-06T09:20:18.527Z,3.00
2022-10-06T09:21:18.474Z,3.30
2022-10-06T09:22:18.448Z,3.30
2022-10-06T09:23:18.403Z,3.50
2022-10-06T09:24:18.398Z,3.20
2022-10-06T09:25:18.335Z,3.10
2022-10-06T09:26:18.299Z,2.90
2022-10-06T09:27:18.291Z,3.30
2022-10-06T09:28:18.264Z,3.40
2022-10-06T09:29:18.205Z,3.30
2022-10-06T09:30:18.203Z,3.20
2022-10-06T09:31:18.166Z,3.00
2022-10-06T09:32:18.117Z,3.00
2022-10-06T09:33:18.084Z,3.40
2022-10-06T09:34:18.041Z,3.20
2022-10-06T09:35:18.013Z,3.30
2022-10-06T09:36:17.977Z,3.20
2022-10-06T09:37:17.957Z,3.50
2022-10-06T09:38:17.913Z,3.30
2022-10-06T09:39:17.882Z,2.80
2022-10-06T09:40:17.856Z,3.20
2022-10-06T09:41:17.832Z,3.30
2022-10-06T09:42:17.786Z,3.00
2022-10-06T09:43:17.756Z,3.10
2022-10-06T09:44:17.723Z,3.10
2022-10-06T09:45:17.701Z,3.30
2022-10-06T09:46:17.669Z,3.20
2022-10-06T09:47:17.627Z,3.00
2022-10-06T09:48:19.018Z,2.70
2022-10-06T09:49:17.563Z,3.10
2022-10-06T09:50:17.764Z,3.30
2022-10-06T09:51:17.503Z,3.10
2022-10-06T09:52:17.466Z,3.40
2022-10-06T09:53:17.433Z,3.50
2022-10-06T09:54:17.401Z,3.00
2022-10-06T09:55:17.380Z,3.10
2022-10-06T09:56:17.337Z,2.90
2022-10-06T09:57:17.307Z,2.60
2022-10-06T09:58:17.271Z,3.00
2022-10-06T09:59:17.238Z,2.90
2022-10-06T10:00:17.218Z,2.70
2022-10-06T10:01:17.220Z,2.80
2022-10-06T10:02:17.148Z,2.80
2022-10-06T10:03:17.199Z,2.70
2022-10-06T10:04:21.540Z,2.70
2022-10-06T10:05:17.043Z,2.90
2022-10-06T10:06:17.019Z,3.10
2022-10-06T10:07:16.981Z,2.80
2022-10-06T10:08:16.945Z,2.70
2022-10-06T10:09:19.058Z,3.00
2022-10-06T10:10:16.877Z,2.60
2022-10-06T10:11:16.879Z,3.20
2022-10-06T10:12:16.833Z,3.00
2022-10-06T10:13:16.780Z,3.00
2022-10-06T10:14:16.753Z,2.90
2022-10-06T10:15:16.713Z,2.80
2022-10-06T10:16:16.753Z,2.90
2022-10-06T10:17:16.657Z,2.80
2022-10-06T10:18:16.614Z,2.80
2022-10-06T10:19:16.582Z,2.70
2022-10-06T10:20:16.554Z,2.50
2022-10-06T10:21:16.516Z,2.50
2022-10-06T10:22:16.484Z,2.50
2022-10-06T10:23:16.463Z,2.80
2022-10-06T10:24:16.417Z,2.40
2022-10-06T10:25:16.385Z,2.60
2022-10-06T10:26:16.352Z,2.90
2022-10-06T10:27:16.322Z,2.70
2022-10-06T10:28:16.325Z,2.90
2022-10-06T10:29:16.265Z,2.60
2022-10-06T10:30:16.221Z,2.60
2022-10-06T10:31:16.237Z,2.60
2022-10-06T10:32:16.157Z,2.50
2022-10-06T10:33:16.148Z,2.50
2022-10-06T10:34:26.018Z,2.40
2022-10-06T10:35:16.070Z,2.40
2022-10-06T10:36:16.029Z,2.40
2022-10-06T10:37:15.995Z,2.40
2022-10-06T10:38:15.963Z,2.50
2022-10-06T10:39:15.931Z,2.60
2022-10-06T10:40:15.911Z,2.30
2022-10-06T10:41:15.867Z,2.30
2022-10-06T10:42:15.837Z,2.40
2022-10-06T10:43:15.804Z,2.30
2022-10-06T10:44:15.772Z,2.30
2022-10-06T10:45:15.740Z,2.20
2022-10-06T10:46:15.767Z,2.20
2022-10-06T10:47:15.673Z,2.20
2022-10-06T10:48:15.643Z,2.20
2022-10-06T10:49:15.610Z,2.30
2022-10-06T10:50:15.579Z,2.00
2022-10-06T10:51:15.558Z,2.10
2022-10-06T10:52:15.515Z,2.20
2022-10-06T10:53:15.560Z,2.20
2022-10-06T10:54:15.461Z,2.00
2022-10-06T10:55:15.421Z,2.20
2022-10-06T10:56:15.386Z,2.30
2022-10-06T10:57:15.369Z,2.20
2022-10-06T10:58:15.323Z,2.00
2022-10-06T10:59:15.288Z,1.90
2022-10-06T11:00:15.258Z,2.20
2022-10-06T11:01:15.242Z,2.40
2022-10-06T11:02:15.252Z,2.20
2022-10-06T11:03:15.160Z,2.30
2022-10-06T11:04:15.130Z,2.30
2022-10-06T11:05:15.095Z,2.50
2022-10-06T11:06:15.076Z,2.30
2022-10-06T11:07:15.044Z,2.30
2022-10-06T11:08:15.010Z,2.50
2022-10-06T11:09:14.967Z,2.10
2022-10-06T11:10:14.943Z,2.10
2022-10-06T11:11:14.907Z,2.10
2022-10-06T11:12:14.883Z,2.30
2022-10-06T11:13:14.840Z,2.00
2022-10-06T11:14:14.810Z,2.00
2022-10-06T11:15:14.780Z,1.90
2022-10-06T11:16:14.813Z,2.00
2022-10-06T11:17:14.713Z,1.90
2022-10-06T11:18:17.136Z,1.90
2022-10-06T11:19:14.649Z,2.20
2022-10-06T11:20:14.622Z,2.20
2022-10-06T11:21:14.582Z,1.90
2022-10-06T11:22:14.551Z,1.90
2022-10-06T11:23:14.518Z,2.00
2022-10-06T11:24:14.500Z,2.10
2022-10-06T11:25:14.457Z,1.90
2022-10-06T11:26:14.486Z,2.00
2022-10-06T11:27:14.396Z,1.60
2022-10-06T11:28:14.387Z,2.00
2022-10-06T11:29:14.321Z,1.90
2022-10-06T11:30:14.287Z,2.10
2022-10-06T11:31:16.682Z,1.80
2022-10-06T11:32:14.236Z,2.10
2022-10-06T11:33:14.191Z,1.90
2022-10-06T11:34:14.164Z,1.90
2022-10-06T11:35:14.126Z,2.10
2022-10-06T11:36:14.092Z,1.90
2022-10-06T11:37:14.062Z,1.70
2022-10-06T11:38:14.037Z,2.00
2022-10-06T11:39:13.994Z,2.00
2022-10-06T11:40:13.980Z,1.90
2022-10-06T11:41:13.932Z,2.00
2022-10-06T11:42:13.899Z,2.10
2022-10-06T11:43:13.872Z,1.90
2022-10-06T11:44:13.872Z,1.90
2022-10-06T11:45:13.803Z,2.00
2022-10-06T11:46:13.806Z,2.20
2022-10-06T11:47:13.737Z,1.80
2022-10-06T11:48:13.839Z,1.70
2022-10-06T11:49:13.670Z,1.90
2022-10-06T11:50:13.634Z,1.80
2022-10-06T11:51:13.602Z,2.00
2022-10-06T11:52:13.572Z,1.90
2022-10-06T11:53:13.552Z,2.10
2022-10-06T11:54:13.505Z,2.10
2022-10-06T11:55:13.474Z,1.80
2022-10-06T11:56:13.460Z,1.70
2022-10-06T11:57:13.455Z,2.00
2022-10-06T11:58:30.243Z,1.80
2022-10-06T11:59:13.371Z,2.10
2022-10-06T12:00:13.309Z,1.90
2022-10-06T12:01:13.282Z,1.90
2022-10-06T12:02:13.335Z,1.70
2022-10-06T12:03:13.277Z,2.00
2022-10-06T12:04:13.204Z,2.20
2022-10-06T12:05:49.390Z,2.10
2022-10-06T12:06:13.123Z,2.00
2022-10-06T12:07:13.083Z,2.10
2022-10-06T12:08:13.052Z,2.10
2022-10-06T12:09:13.021Z,2.20
2022-10-06T12:10:12.996Z,1.60
2022-10-06T12:11:12.954Z,2.10
2022-10-06T12:12:12.936Z,2.30
2022-10-06T12:13:39.145Z,2.10
2022-10-06T12:15:37.922Z,2.20
2022-10-06T12:17:18.361Z,2.20
2022-10-06T12:18:12.727Z,2.00
2022-10-06T12:19:12.694Z,2.20
2022-10-06T12:20:12.666Z,2.10
2022-10-06T12:21:12.646Z,2.10
2022-10-06T12:22:12.599Z,2.10
2022-10-06T12:23:12.571Z,1.90
2022-10-06T12:25:12.506Z,2.10
2022-10-06T12:26:12.481Z,2.50
2022-10-06T12:27:12.441Z,2.20
2022-10-06T12:28:12.455Z,2.40
2022-10-06T12:29:12.373Z,2.10
2022-10-06T12:30:12.338Z,2.80
2022-10-06T12:31:17.842Z,2.60
2022-10-06T12:32:12.285Z,3.00
2022-10-06T12:33:12.248Z,2.50
2022-10-06T12:34:12.217Z,2.40
2022-10-06T12:35:12.173Z,2.30
2022-10-06T12:36:12.161Z,2.40
2022-10-06T12:37:12.117Z,2.20
2022-10-06T12:38:12.089Z,2.20
2022-10-06T12:39:12.042Z,2.10
2022-10-06T12:40:12.008Z,2.40
2022-10-06T12:41:11.976Z,2.00
2022-10-06T12:42:11.941Z,2.00
2022-10-06T12:43:11.981Z,1.70
2022-10-06T12:44:11.887Z,2.20
2022-10-06T12:45:11.843Z,2.10
2022-10-06T12:46:11.837Z,2.00
2022-10-06T12:47:11.779Z,1.90
2022-10-06T12:48:11.745Z,1.70
2022-10-06T12:49:11.724Z,2.20
2022-10-06T12:50:11.678Z,1.90
2022-10-06T12:51:11.646Z,1.90
2022-10-06T12:52:11.617Z,2.20
2022-10-06T12:53:11.578Z,2.20
2022-10-06T12:54:11.560Z,2.40
2022-10-06T12:55:11.507Z,2.20
2022-10-06T12:56:11.479Z,2.20
2022-10-06T12:57:11.446Z,2.30
2022-10-06T12:58:11.410Z,2.00
2022-10-06T12:59:11.392Z,2.10
2022-10-06T13:00:11.356Z,2.00
2022-10-06T13:01:11.374Z,2.10
2022-10-06T13:02:11.306Z,2.40
2022-10-06T13:03:11.238Z,2.30
2022-10-06T13:04:11.205Z,2.10
2022-10-06T13:05:11.167Z,1.90
2022-10-06T13:06:11.147Z,2.40
2022-10-06T13:07:11.099Z,2.40
2022-10-06T13:08:11.067Z,2.00
2022-10-06T13:09:11.027Z,2.10
2022-10-06T13:10:10.992Z,2.20
2022-10-06T13:11:10.966Z,1.90
2022-10-06T13:12:10.922Z,2.30
2022-10-06T13:13:10.884Z,2.40
2022-10-06T13:14:10.847Z,2.20
2022-10-06T13:15:10.813Z,2.30
2022-10-06T13:16:10.815Z,2.10
2022-10-06T13:17:10.788Z,2.30
2022-10-06T13:18:10.706Z,2.20
2022-10-06T13:19:10.667Z,1.80
2022-10-06T13:20:10.640Z,2.00
2022-10-06T13:21:10.598Z,2.30